Station MNMM4 - 9087088 - Menominee, MI Image indicating link to RSS feed of recent meteorological observations for station MNMM4


Conditions at MNMM4 as of
(5:30 am CDT)
1030 GMT on 09/01/2026:
     

Click on the graph icon in the table below to see a time series plot of the last five days of that observation.

5-day plot - Wind Direction Wind Direction (WDIR): N ( 350 deg true )
5-day plot - Wind Speed Wind Speed (WSPD): 4.1 kts
5-day plot - Wind Gust Wind Gust (GST): 5.1 kts
5-day plot - Atmospheric Pressure Atmospheric Pressure (PRES):29.91 in
5-day plot - Air Temperature Air Temperature (ATMP): 69.6 °F
5-day plot - Water Temperature Water Temperature (WTMP): 70.3 °F
5-day plot - Dew Point Dew Point (DEWP): 69.6 °F
5-day plot - Wind Speed at 10 Meters Wind Speed at 10 meters (WSPD10M): 3.9 kts
5-day plot - Wind Speed at 20 Meters Wind Speed at 20 meters (WSPD20M): 3.9 kts
5-day plot -  Wind Speed, Wind Gust and Atmospheric Pressure Combined plot of Wind Speed, Gust, and Air Pressure
NOS Water Level Observation Network Water Level
Previous observations
TIME
(CDT)
5-day plot - Wind Direction
WDIR
 
5-day plot - Wind Speed
WSPD
kts
5-day plot - Wind Gust
GST
kts
5-day plot - Wave Height
WVHT
ft
5-day plot - Dominant Wave Period
DPD
sec
5-day plot - Average Wave Period
APD
sec
5-day plot - Mean Wave Direction
MWD
 
5-day plot - Atmospheric Pressure
PRES
in
5-day plot - Pressure Tendency
PTDY
in
5-day plot - Air Temperature
ATMP
°F
5-day plot - Water Temperature
WTMP
°F
5-day plot - Dew Point
DEWP
°F
5-day plot - Salinity
SAL
psu
5-day plot - Visibility
VIS
nmi
5-day plot - Tide (above MLLW)
TIDE
ft
2026-09-01 05:24 am N 5.1 5.1----29.90- 69.6 70.3 69.6---
2026-09-01 05:18 am N 5.1 5.1----29.90-- 70.3----
2026-09-01 05:12 am N 4.1 4.1----29.90-- 70.3----
2026-09-01 05:06 am N 4.1 4.1----29.90-- 70.3----
2026-09-01 05:00 am N 2.9 4.1----29.90- 69.6 70.3 69.6---
2026-09-01 04:54 amNNE 2.9 2.9----29.90- 69.6 70.3 69.6---
2026-09-01 04:48 amNNE 2.9 4.1----29.90- 69.6 70.3 69.6---
2026-09-01 04:42 am N 4.1 4.1----29.90- 69.6 70.3 69.6---
2026-09-01 04:36 am N 4.1 4.1----29.90- 69.8 70.3 69.8---
2026-09-01 04:30 amNNE 2.9 5.1----29.90- 70.0 70.3 70.0---
2026-09-01 04:24 am NE 4.1 5.1----29.90- 70.0 70.3 70.0---
2026-09-01 04:18 am NE 2.9 4.1----29.90-- 70.3----
2026-09-01 04:12 amNNE 1.9 1.9----29.90-- 70.3----
2026-09-01 04:06 amNNE 1.9 1.9----29.90-- 70.3----
2026-09-01 04:00 am N 1.9 2.9----29.90+0.02 69.4 70.3 69.4---
2026-09-01 03:54 am N 2.9 2.9----29.90- 69.4 70.3 69.4---
2026-09-01 03:48 am N 2.9 2.9----29.90-- 70.3----
2026-09-01 03:42 amNNW 2.9 2.9----29.90-- 70.3----
2026-09-01 03:36 am N 2.9 4.1----29.90-- 70.3----
2026-09-01 03:30 amNNW 4.1 5.1----29.89- 69.8 70.3 69.8---
2026-09-01 03:24 amNNW 5.1 5.1----29.89- 69.8 70.3 69.8---
2026-09-01 03:18 am N 5.1 5.1----29.89-- 70.2----
2026-09-01 03:12 amNNW 5.1 5.1----29.89-- 70.2----
2026-09-01 03:06 amNNW 5.1 5.1----29.89-- 70.3----
2026-09-01 03:00 amNNW 4.1 4.1----29.89+0.01 70.2 70.3 70.2---
2026-09-01 02:54 amNNW 2.9 2.9----29.88- 70.2 70.3 70.2---
2026-09-01 02:48 amNNW 2.9 2.9----29.88- 70.0 70.3 70.0---
2026-09-01 02:42 am N 2.9 2.9----29.88- 70.0 70.3 70.0---
2026-09-01 02:36 am N 2.9 4.1----29.89- 70.0 70.3 70.0---
2026-09-01 02:30 am N 2.9 4.1----29.88- 70.0 70.3 70.0---
2026-09-01 02:24 am N 4.1 4.1----29.88- 70.0 70.3 70.0---
2026-09-01 02:18 am N 4.1 5.1----29.88- 70.0 70.2 70.0---
2026-09-01 02:12 am N 4.1 5.1----29.88- 70.5 70.3 70.5---
2026-09-01 02:06 amNNE 5.1 5.1----29.88- 70.3 70.3 70.3---
2026-09-01 02:00 amNNE 5.1 5.1------ 70.3 70.2 70.3---
2026-09-01 01:54 amNNE 4.1 4.1------ 70.3 70.2 70.3---
2026-09-01 01:48 amNNE 1.9 2.9----29.88- 70.7 70.2 70.7---
2026-09-01 01:42 am NE 1.9 1.9----29.88- 71.1 70.2 71.1---
2026-09-01 01:36 am E 1.0 1.0----29.88- 71.2 70.2 71.2---
2026-09-01 01:30 am- 0.0 0.0----29.88-- 70.3----
2026-09-01 01:24 am- 0.0 0.0----29.88-- 70.2----
2026-09-01 01:18 am- 0.0 0.0----29.88-- 70.3----
2026-09-01 01:12 am- 0.0 0.0----29.88-- 70.2----
2026-09-01 01:06 am- 0.0 1.9----29.88-- 70.2----
2026-09-01 01:00 amNNW 1.9 1.9----29.88+0.00 70.7 70.2 70.7---
2026-09-01 12:54 am N 1.0 1.9----29.88- 70.9 70.2 70.9---
2026-09-01 12:48 amNNW 1.9 1.9----29.88- 70.9 70.2 70.9---
2026-09-01 12:42 am N 1.9 1.9----29.88- 70.9 70.2 70.9---
2026-09-01 12:36 am N 1.9 2.9----29.88- 70.9 70.2 70.9---
2026-09-01 12:30 am N 2.9 2.9----29.88- 70.7 70.2 70.7---
2026-09-01 12:24 am N 2.9 4.1----29.88- 70.5 70.2 70.5---
2026-09-01 12:18 am N 2.9 4.1----29.88-- 70.2----
2026-09-01 12:12 amNNW 2.9 4.1----29.88-- 70.2----
2026-09-01 12:06 amNNW 2.9 4.1----29.88-- 70.2----
2026-09-01 12:00 amNNW 4.1 4.1----29.88+0.00 70.3 70.2 70.3---
2026-08-31 11:54 pmNNW 1.9 1.9----29.88- 71.4 70.2 71.1---
2026-08-31 11:48 pm NW 1.0 1.9----29.88- 72.1 70.2 71.4---
2026-08-31 11:42 pm- 0.0 1.0----29.88- 72.9 70.2 72.1---
2026-08-31 11:36 pm S 1.9 2.9----29.88- 72.9 70.2 72.3---
2026-08-31 11:30 pmSSW 1.9 2.9----29.88- 73.0 70.2 72.1---
2026-08-31 11:24 pm SW 1.9 2.9----29.88- 73.0 70.2 72.3---
2026-08-31 11:18 pm S 1.9 1.9----29.88-- 70.2----
2026-08-31 11:12 pm S 1.9 1.9----29.88-- 70.2----
2026-08-31 11:06 pm- 0.0 1.0----29.88-- 70.2----
2026-08-31 11:00 pm- 0.0 0.0----29.88+0.01 72.1 70.2 71.8---
2026-08-31 10:54 pm- 0.0 0.0----29.88- 72.0 70.2 71.6---
2026-08-31 10:48 pm- 0.0 1.0----29.88-- 70.2----
2026-08-31 10:42 pm- 0.0 0.0----29.88-- 70.2----
2026-08-31 10:36 pm- 0.0 1.0----29.88-- 70.2----
2026-08-31 10:30 pm- 0.0 1.0----29.88- 71.6 70.2 71.6---
2026-08-31 10:24 pm N 1.0 2.9----29.88- 71.6 70.2 71.6---
2026-08-31 10:18 pm N 1.0 2.9------- 70.2----
2026-08-31 10:12 pm N 1.9 2.9------- 70.2----
2026-08-31 10:06 pmNNW 2.9 4.1------- 70.2----
2026-08-31 10:00 pmNNW 4.1 4.1----29.88+0.04 71.2 70.2 71.2---
2026-08-31 09:54 pmNNW 2.9 4.1----29.88- 71.4 70.2 71.4---
2026-08-31 09:48 pmNNW 4.1 4.1----29.88- 71.4 70.2 71.2---
2026-08-31 09:42 pmNNW 1.9 2.9----29.89- 71.4 70.2 71.1---
2026-08-31 09:36 pmNNW 1.0 1.9----29.88- 71.4 70.2 71.4---
2026-08-31 09:30 pmNNW 2.9 2.9----29.88- 71.2 70.2 71.2---
2026-08-31 09:24 pm N 1.9 1.9----29.88- 71.2 70.2 71.1---
2026-08-31 09:18 pm- 0.0 1.0----29.88-- 70.2----
2026-08-31 09:12 pm- 0.0 1.9----29.88-- 70.2----
2026-08-31 09:06 pm N 2.9 5.1----29.88-- 70.2----
2026-08-31 09:00 pmNNW 5.1 5.1----29.88+0.06 71.1 70.2 71.1---
2026-08-31 08:54 pmNNW 4.1 5.1----29.88- 71.1 70.2 71.1---
2026-08-31 08:48 pmNNW 2.9 4.1----29.88- 71.1 70.2 71.1---
2026-08-31 08:42 pm N 4.1 5.1----29.88- 71.1 70.2 71.1---
2026-08-31 08:36 pm N 5.1 5.1----29.88- 71.1 70.2 71.1---
2026-08-31 08:30 pm N 5.1 5.1----29.88- 70.9 70.2 70.9---
2026-08-31 08:24 pmNNW 4.1 4.1----29.87- 71.1 70.2 71.1---
2026-08-31 08:18 pm N 2.9 4.1----29.87-- 70.2----
2026-08-31 08:12 pm N 1.9 2.9----29.87-- 70.2----
2026-08-31 08:06 pm N 2.9 6.0----29.86-- 70.0----
2026-08-31 08:00 pmNNE 6.0 8.0----29.86+0.03 71.6 70.2 71.4---
2026-08-31 07:54 pmNNE 8.0 8.9----29.86- 71.8 70.2 71.4---
2026-08-31 07:48 pmNNE 8.9 9.9----29.85-- 70.2----
2026-08-31 07:42 pmNNE 2.9 8.0----29.85-- 70.2----
2026-08-31 07:36 pm- 0.0 1.9----29.85-- 70.0----
2026-08-31 07:30 pm S 1.0 1.9----29.85- 77.5 70.0 73.9---
2026-08-31 07:24 pmSSW 1.0 1.0----29.85- 78.3 70.0 73.9---
2026-08-31 07:18 pm SW 1.0 1.0----29.85-- 70.0----
2026-08-31 07:12 pm- 0.0 1.0----29.85-- 70.0----
2026-08-31 07:06 pm S 1.0 1.0----29.85-- 70.0----
2026-08-31 07:00 pm- 0.0 1.9----29.85+0.03 79.9 70.0 74.7---
2026-08-31 06:54 pm S 1.9 1.9----29.84- 79.9 70.0 74.5---
2026-08-31 06:48 pm S 1.9 1.9----29.84-- 70.0----
2026-08-31 06:42 pmSSW 1.0 2.9----29.84-- 70.0----
2026-08-31 06:36 pmSSW 1.9 1.9----29.84-- 70.0----
2026-08-31 05:48 pm S 4.1 5.1----29.83- 78.1 70.0 73.9---
2026-08-31 05:42 pm S 4.1 6.0----29.83- 78.1 70.0 73.9---
2026-08-31 05:36 pm S 5.1 6.0----29.83- 78.6 70.0 73.9---
2026-08-31 05:30 pm S 5.1 7.0----29.83- 78.8 70.0 73.9---
2026-08-31 05:24 pm S 5.1 6.0----29.83- 78.1 70.0 73.4---
2026-08-31 05:18 pm S 5.1 6.0----29.83- 78.6 70.0 73.4---
2026-08-31 05:12 pm S 5.1 7.0----29.83- 78.4 70.0 73.0---
2026-08-31 05:06 pm S 6.0 8.0----29.83- 78.8 70.0 72.9---
2026-08-31 05:00 pm S 7.0 8.9----29.83+0.00 79.2 70.0 72.7---
2026-08-31 04:54 pm S 8.0 9.9----29.83- 79.3 70.0 72.5---
2026-08-31 04:48 pm S 7.0 8.9----29.83- 79.0 70.0 72.3---
2026-08-31 04:42 pm S 7.0 8.0----29.83- 79.3 70.0 72.3---
2026-08-31 04:36 pmSSE 5.1 8.0----29.83- 79.2 70.2 72.3---
2026-08-31 04:30 pmSSE 8.0 8.9----29.82- 80.1 70.2 72.1---
2026-08-31 04:24 pmSSE 6.0 7.0----29.82- 80.1 70.2 72.1---
2026-08-31 04:18 pmSSE 7.0 8.0----29.82-- 70.0----
2026-08-31 04:12 pmSSE 6.0 7.0----29.82-- 70.0----
2026-08-31 04:06 pm S 6.0 7.0----29.82-- 70.0----
2026-08-31 04:00 pm S 6.0 7.0----29.82-0.02 79.7 70.0 72.5---
2026-08-31 03:54 pm S 6.0 8.9----29.82- 79.7 70.0 72.7---
2026-08-31 03:48 pm S 8.0 8.9----29.82- 79.2 70.0 72.5---
2026-08-31 03:42 pm S 6.0 8.9----29.82- 79.0 70.0 72.7---
2026-08-31 03:36 pm S 7.0 8.9----29.82- 79.0 70.0 72.7---
2026-08-31 03:30 pm S 7.0 8.9----29.82-- 70.0----
2026-08-31 03:24 pm S 7.0 8.0----29.82-- 70.0----
2026-08-31 03:18 pm S 7.0 8.9----29.81-- 70.0----
2026-08-31 03:12 pm S 7.0 8.9----29.82-- 70.0----
2026-08-31 03:06 pm S 6.0 9.9----29.82-- 70.0----
2026-08-31 03:00 pm S 6.0 8.9----29.83-0.01 79.3 70.0 73.0---
2026-08-31 02:54 pmSSE 5.1 7.0----29.83- 78.8 70.0 72.9---
2026-08-31 02:48 pmSSE 5.1 7.0----29.83- 79.2 70.0 73.2---
2026-08-31 02:42 pmSSE 4.1 6.0----29.83- 79.0 70.0 72.9---
2026-08-31 02:36 pm S 5.1 6.0----29.83- 78.8 70.0 72.5---
2026-08-31 02:30 pm S 1.9 4.1----29.83- 77.9 70.0 72.7---
2026-08-31 02:24 pmSSE 4.1 5.1----29.83- 77.4 70.0 72.1---
2026-08-31 02:18 pmSSE 5.1 6.0----29.83-- 70.0----
2026-08-31 02:12 pmSSE 7.0 8.0----29.83-- 70.0----
2026-08-31 02:06 pmSSE 6.0 7.0----29.83-- 70.0----
2026-08-31 02:00 pmSSE 6.0 8.9----29.83-0.02 77.4 70.0 71.4---
2026-08-31 01:54 pmSSE 7.0 9.9----29.83- 77.2 70.0 71.4---
2026-08-31 01:48 pmSSE 7.0 8.9----29.83- 77.0 70.0 72.0---
2026-08-31 01:42 pmSSE 7.0 8.9----29.83- 75.0 70.0 71.4---
2026-08-31 01:36 pmSSE 8.0 8.0----29.83- 74.3 70.0 71.2---
2026-08-31 01:30 pmSSE 6.0 7.0----29.84- 74.5 70.0 71.4---
2026-08-31 01:24 pm SE 7.0 8.0----29.84- 73.6 70.0 71.2---
2026-08-31 01:18 pm SE 8.0 8.0----29.84-- 70.0----
2026-08-31 01:12 pm SE 8.0 8.0----29.84-- 70.0----
2026-08-31 01:06 pm SE 7.0 7.0----29.84-- 70.0----
2026-08-31 01:00 pm SE 8.0 8.9----29.84-0.03 74.1 70.0 70.9---
2026-08-31 12:54 pm SE 8.0 8.9----29.83- 73.9 70.0 71.1---
2026-08-31 12:48 pm SE 8.0 8.9----29.84-- 70.0----
2026-08-31 12:42 pm SE 8.0 8.9----29.83-- 70.0----
2026-08-31 12:36 pm SE 8.9 8.9----29.83-- 70.0----
2026-08-31 12:30 pm SE 8.0 8.9----29.84- 73.0 70.0 71.1---
2026-08-31 12:24 pm SE 8.9 9.9----29.84- 72.7 70.0 70.9---
2026-08-31 12:18 pm SE 8.0 8.9----29.84-- 70.0----
2026-08-31 12:12 pm SE 8.0 9.9----29.84-- 70.0----
2026-08-31 12:06 pm SE 8.0 9.9----29.84-- 70.0----
2026-08-31 12:00 pm SE 9.9 9.9----29.84-0.04 72.3 70.0 70.7---
2026-08-31 11:54 am SE 8.0 8.9----29.84- 72.1 70.0 70.5---
2026-08-31 11:48 am SE 6.0 7.0----29.85- 72.3 70.0 70.5---
2026-08-31 11:42 am SE 7.0 8.0----29.85- 72.3 70.0 70.7---
2026-08-31 11:36 am SE 6.0 8.0----29.85- 72.1 70.0 70.7---
2026-08-31 11:30 am SE 8.0 8.9----29.85- 72.0 70.0 70.7---
2026-08-31 11:24 am SE 8.0 9.9----29.84- 71.8 70.0 70.5---
2026-08-31 11:18 am SE 8.0 11.1----29.85-- 70.0----
2026-08-31 11:12 am SE 9.9 12.0----29.85-- 70.0----
2026-08-31 11:06 am SE 12.0 14.0----29.85-- 70.0----
2026-08-31 11:00 am SE 12.0 13.0----29.85-0.04 71.2 70.0 70.2---
2026-08-31 10:54 am SE 11.1 12.0----29.85- 71.2 70.0 70.2---
2026-08-31 10:48 am SE 9.9 12.0----29.86- 71.2 70.0 70.3---
2026-08-31 10:42 am SE 11.1 12.0----29.86- 71.2 70.0 70.3---
2026-08-31 10:36 am SE 11.1 12.0----29.86- 71.2 70.0 70.3---
2026-08-31 10:30 am SE 11.1 13.0----29.86- 71.2 70.0 70.2---
2026-08-31 10:24 am SE 12.0 13.0----29.86- 71.2 70.0 70.2---
2026-08-31 10:18 am SE 11.1 13.0----29.86-- 70.0----
2026-08-31 10:12 am SE 11.1 13.0----29.87-- 70.0----
2026-08-31 10:06 am SE 12.0 14.0----29.87-- 70.0----
2026-08-31 10:00 am SE 13.0 15.0----29.86-0.02 71.6 70.0 70.2---
2026-08-31 09:54 am SE 13.0 15.0----29.86- 71.6 70.0 69.8---
2026-08-31 09:48 am SE 9.9 11.1----29.87- 71.8 70.0 69.4---
2026-08-31 09:42 am SE 4.1 5.1----29.87- 72.5 70.0 70.0---
2026-08-31 09:36 am S 1.0 1.9----29.88- 73.0 70.0 70.5---
2026-08-31 09:30 am- 0.0 1.0----29.88- 75.0 70.0 71.2---
2026-08-31 09:24 am- 0.0 1.0----29.88- 75.0 70.0 71.1---
2026-08-31 09:18 am SE 1.0 4.1----29.87-- 70.0----
2026-08-31 09:12 amESE 4.1 4.1----29.87-- 70.0----
2026-08-31 09:06 am SE 4.1 4.1----29.88-- 70.0----
2026-08-31 09:00 am SE 4.1 6.0----29.88-0.01 71.4 70.0 70.5---
2026-08-31 08:54 am SE 7.0 9.9----29.87- 70.9 70.0 70.2---
2026-08-31 08:48 am SE 8.0 8.9----29.87-- 69.8----
2026-08-31 08:42 am SE 8.0 9.9----29.87-- 70.0----
2026-08-31 08:36 am SE 8.9 11.1----29.88-- 70.0----
2026-08-31 08:30 am SE 8.0 9.9----29.88- 70.3 70.0 69.8---
2026-08-31 08:24 amSSE 8.9 11.1----29.88- 70.3 70.0 70.2---
2026-08-31 08:18 amSSE 8.9 9.9----29.88-- 70.2----
2026-08-31 08:12 am SE 8.0 9.9----29.88-- 70.2----
2026-08-31 08:06 am SE 8.9 9.9----29.88-- 70.0----
2026-08-31 08:00 amSSE 7.0 8.9----29.88-0.01 69.6 70.0 69.6---
2026-08-31 07:54 am SE 8.0 8.9----29.88- 69.4 70.0 69.4---
2026-08-31 07:48 am SE 8.0 8.0----29.89-- 70.0----
2026-08-31 07:42 am SE 8.0 9.9----29.89-- 70.0----
2026-08-31 07:36 am SE 8.9 9.9----29.88-- 70.0----
2026-08-31 07:30 am SE 8.9 11.1----29.89- 69.6 70.0 69.6---
2026-08-31 07:24 amSSE 9.9 9.9----29.89- 69.6 70.0 69.6---
2026-08-31 07:18 am SE 8.0 8.9----29.89-- 70.0----
2026-08-31 07:12 amESE 8.0 8.9----29.89-- 70.0----
2026-08-31 07:06 amESE 8.0 8.9----29.89-- 69.8----
2026-08-31 07:00 amESE 7.0 9.9----29.89+0.00 69.4 69.8 69.4---
2026-08-31 06:54 amESE 8.9 9.9----29.89- 69.4 69.8 69.4---
2026-08-31 06:48 amESE 7.0 8.9----29.89-- 70.0----
2026-08-31 06:42 am E 7.0 8.9----29.88-- 70.0----
2026-08-31 06:36 am E 8.0 8.9----29.88-- 70.0----
2026-08-31 06:30 am E 7.0 8.9----29.88- 69.4 70.0 69.4---
2026-08-31 06:24 am E 7.0 8.9----29.88- 69.4 69.8 69.4---
2026-08-31 06:18 am E 8.0 8.9----29.88-- 69.8----
2026-08-31 06:12 am E 7.0 8.9----29.88-- 69.8----
2026-08-31 06:06 am E 7.0 8.0----29.88-- 69.8----
2026-08-31 06:00 amENE 6.0 8.0----29.89-0.04 69.3 69.8 69.3---
2026-08-31 05:54 amENE 7.0 9.9----29.89- 69.4 69.8 69.4---